createdAt,value
2022-11-25T00:00:53.923Z,6.93
2022-11-25T00:03:59.722Z,6.85
2022-11-25T00:07:03.551Z,7.50
2022-11-25T00:10:08.744Z,7.80
2022-11-25T00:13:11.750Z,7.63
2022-11-25T00:16:17.225Z,7.78
2022-11-25T00:19:21.673Z,7.40
2022-11-25T00:22:24.729Z,8.40
2022-11-25T00:25:27.700Z,8.23
2022-11-25T00:28:30.652Z,7.50
2022-11-25T00:31:36.671Z,8.23
2022-11-25T00:34:41.468Z,8.55
2022-11-25T00:37:44.486Z,7.30
2022-11-25T00:41:07.663Z,8.23
2022-11-25T00:44:30.867Z,7.65
2022-11-25T00:47:34.064Z,7.95
2022-11-25T00:50:38.477Z,8.00
2022-11-25T00:53:41.533Z,8.35
2022-11-25T00:56:44.829Z,8.60
2022-11-25T00:59:48.390Z,8.10
2022-11-25T01:02:51.468Z,7.60
2022-11-25T01:05:55.806Z,7.35
2022-11-25T01:08:59.069Z,7.70
2022-11-25T01:12:02.185Z,7.13
2022-11-25T01:15:06.714Z,7.95
2022-11-25T01:18:09.744Z,7.88
2022-11-25T01:21:17.812Z,9.20
2022-11-25T01:24:23.930Z,9.82
2022-11-25T01:27:27.334Z,9.82
2022-11-25T01:30:30.409Z,10.20
2022-11-25T01:33:34.650Z,10.82
2022-11-25T01:39:42.001Z,10.80
2022-11-25T01:42:47.367Z,11.27
2022-11-25T01:45:50.649Z,12.07
2022-11-25T01:48:59.202Z,11.83
2022-11-25T01:52:12.152Z,11.80
2022-11-25T01:55:21.829Z,11.48
2022-11-25T01:58:31.734Z,12.23
2022-11-25T02:01:35.333Z,11.80
2022-11-25T02:04:41.298Z,12.05
2022-11-25T02:07:49.495Z,11.48
2022-11-25T02:10:56.308Z,12.48
2022-11-25T02:14:01.519Z,12.20
2022-11-25T02:17:04.516Z,12.05
2022-11-25T02:20:11.928Z,11.15
2022-11-25T02:23:27.200Z,10.70
2022-11-25T02:26:32.677Z,9.15
2022-11-25T02:29:36.747Z,8.95
2022-11-25T02:32:45.452Z,9.18
2022-11-25T02:35:53.480Z,8.30
2022-11-25T02:39:00.514Z,7.82
2022-11-25T02:42:05.455Z,7.20
2022-11-25T02:45:16.582Z,7.50
2022-11-25T02:48:20.005Z,6.57
2022-11-25T02:51:26.455Z,6.22
2022-11-25T02:54:29.554Z,6.03
2022-11-25T02:57:33.909Z,5.93
2022-11-25T03:00:37.785Z,6.57
2022-11-25T03:03:42.257Z,5.85
2022-11-25T03:06:45.404Z,6.05
2022-11-25T03:09:48.361Z,5.20
2022-11-25T03:12:52.781Z,5.78
2022-11-25T03:15:55.930Z,6.22
2022-11-25T03:18:59.068Z,6.28
2022-11-25T03:22:02.242Z,5.78
2022-11-25T03:25:06.342Z,6.00
2022-11-25T03:31:13.902Z,5.18
2022-11-25T03:34:16.984Z,5.30
2022-11-25T03:37:20.918Z,5.40
2022-11-25T03:40:24.235Z,6.50
2022-11-25T03:43:28.962Z,7.77
2022-11-25T03:46:32.079Z,7.38
2022-11-25T03:49:35.221Z,8.90
2022-11-25T03:52:38.571Z,9.07
2022-11-25T03:55:41.623Z,9.37
2022-11-25T03:58:47.970Z,9.85
2022-11-25T04:01:51.328Z,8.55
2022-11-25T04:04:54.368Z,9.55
2022-11-25T04:07:58.341Z,9.15
2022-11-25T04:11:01.681Z,8.98
2022-11-25T04:14:05.029Z,8.87
2022-11-25T04:17:08.793Z,9.83
2022-11-25T04:20:14.850Z,9.35
2022-11-25T04:23:17.879Z,10.05
2022-11-25T04:26:20.982Z,10.32
2022-11-25T04:29:25.740Z,10.02
2022-11-25T04:32:28.756Z,9.80
2022-11-25T04:35:31.734Z,9.52
2022-11-25T04:38:34.920Z,8.50
2022-11-25T04:41:37.946Z,8.73
2022-11-25T04:44:42.268Z,8.13
2022-11-25T04:47:46.354Z,7.68
2022-11-25T04:50:49.680Z,6.28
2022-11-25T04:53:52.792Z,7.10
2022-11-25T04:56:55.847Z,6.15
2022-11-25T05:00:00.732Z,6.72
2022-11-25T05:03:03.720Z,6.03
2022-11-25T05:06:08.189Z,5.68
2022-11-25T05:09:11.336Z,6.63
2022-11-25T05:12:17.425Z,6.35
2022-11-25T05:15:21.790Z,6.13
2022-11-25T05:18:24.849Z,6.85
2022-11-25T05:21:28.493Z,6.65
2022-11-25T05:24:31.701Z,7.30
2022-11-25T05:27:34.946Z,7.75
2022-11-25T05:30:39.420Z,8.80
2022-11-25T05:33:42.596Z,8.00
2022-11-25T05:36:45.637Z,8.10
2022-11-25T05:39:48.701Z,8.23
2022-11-25T05:42:51.641Z,8.35
2022-11-25T05:45:56.005Z,7.93
2022-11-25T05:48:59.369Z,6.68
2022-11-25T05:52:02.452Z,6.43
2022-11-25T05:55:06.307Z,6.10
2022-11-25T05:58:09.771Z,6.10
2022-11-25T06:01:17.309Z,5.95
2022-11-25T06:04:20.504Z,6.28
2022-11-25T06:07:23.609Z,6.47
2022-11-25T06:10:26.550Z,6.60
2022-11-25T06:13:29.516Z,6.50
2022-11-25T06:16:33.981Z,6.50
2022-11-25T06:19:37.034Z,6.00
2022-11-25T06:22:39.937Z,6.43
2022-11-25T06:25:42.974Z,7.13
2022-11-25T06:28:46.589Z,7.25
2022-11-25T06:31:51.808Z,9.18
2022-11-25T06:34:54.886Z,8.50
2022-11-25T06:37:59.591Z,7.95
2022-11-25T06:41:03.128Z,8.43
2022-11-25T06:44:06.259Z,8.43
2022-11-25T06:47:10.722Z,8.60
2022-11-25T06:50:13.887Z,8.98
2022-11-25T06:53:21.197Z,9.55
2022-11-25T06:56:29.101Z,10.93
2022-11-25T06:59:33.388Z,10.07
2022-11-25T07:02:42.819Z,9.77
2022-11-25T07:05:47.179Z,9.82
2022-11-25T07:08:50.963Z,10.57
2022-11-25T07:11:54.071Z,10.57
2022-11-25T07:14:57.078Z,9.18
2022-11-25T07:18:01.368Z,9.65
2022-11-25T07:21:08.155Z,10.00
2022-11-25T07:24:13.718Z,9.73
2022-11-25T07:27:16.841Z,10.15
2022-11-25T07:31:21.147Z,9.18
2022-11-25T07:33:45.157Z,8.85
2022-11-25T07:36:50.324Z,8.43
2022-11-25T07:39:53.437Z,9.15
2022-11-25T07:42:56.541Z,8.93
2022-11-25T07:46:11.803Z,8.38
2022-11-25T07:49:20.278Z,8.88
2022-11-25T07:52:23.705Z,8.55
2022-11-25T07:55:26.708Z,9.90
2022-11-25T07:58:29.814Z,7.80
2022-11-25T08:01:33.246Z,10.25
2022-11-25T08:04:38.333Z,9.07
2022-11-25T08:07:41.350Z,8.73
2022-11-25T08:10:44.443Z,9.40
2022-11-25T08:13:48.666Z,9.20
2022-11-25T08:16:51.759Z,8.75
2022-11-25T08:19:56.279Z,8.50
2022-11-25T08:22:59.241Z,8.68
2022-11-25T08:26:05.299Z,8.30
2022-11-25T08:29:09.318Z,7.80
2022-11-25T08:32:12.359Z,7.65
2022-11-25T08:35:16.844Z,7.43
2022-11-25T08:38:20.072Z,9.05
2022-11-25T08:41:27.120Z,9.07
2022-11-25T08:44:30.499Z,9.63
2022-11-25T08:47:33.813Z,9.98
2022-11-25T08:50:39.621Z,9.27
2022-11-25T08:53:44.894Z,9.00
2022-11-25T08:56:48.710Z,9.75
2022-11-25T08:59:51.832Z,10.48
2022-11-25T09:02:55.039Z,10.00
2022-11-25T09:06:00.694Z,11.33
2022-11-25T09:09:05.958Z,11.20
2022-11-25T09:12:09.169Z,10.23
2022-11-25T09:15:13.252Z,10.80
2022-11-25T09:18:18.979Z,11.77
2022-11-25T09:21:24.953Z,12.25
2022-11-25T09:24:28.579Z,11.70
2022-11-25T09:27:32.294Z,12.77
2022-11-25T09:30:35.457Z,12.23
2022-11-25T09:33:38.943Z,11.25
2022-11-25T09:36:46.776Z,10.95
2022-11-25T09:39:50.725Z,12.02
2022-11-25T09:43:22.649Z,11.68
2022-11-25T09:46:57.453Z,11.88
2022-11-25T09:50:16.973Z,13.68
2022-11-25T09:53:43.975Z,12.85
2022-11-25T09:56:55.067Z,12.45
2022-11-25T10:00:12.798Z,12.35
2022-11-25T10:03:29.205Z,12.38
2022-11-25T10:06:41.765Z,12.68
2022-11-25T10:09:46.412Z,11.52
2022-11-25T10:12:52.288Z,12.50
2022-11-25T10:16:00.571Z,13.95
2022-11-25T10:19:17.808Z,12.88
2022-11-25T10:22:27.504Z,13.60
2022-11-25T10:25:37.664Z,13.05
2022-11-25T10:28:47.926Z,13.52
2022-11-25T10:32:00.009Z,12.35
2022-11-25T10:35:13.832Z,12.40
2022-11-25T10:38:30.645Z,11.93
2022-11-25T10:41:46.844Z,12.52
2022-11-25T10:44:50.032Z,12.13
2022-11-25T10:48:23.690Z,12.43
2022-11-25T10:51:40.602Z,12.05
2022-11-25T10:54:57.104Z,12.82
2022-11-25T10:58:28.380Z,11.73
2022-11-25T11:01:31.580Z,11.70
2022-11-25T11:04:37.955Z,12.50
2022-11-25T11:07:45.092Z,11.93
2022-11-25T11:11:10.081Z,12.45
2022-11-25T11:14:21.049Z,11.35
2022-11-25T11:17:37.134Z,10.75
2022-11-25T11:20:48.674Z,10.77
2022-11-25T11:23:54.408Z,10.20
2022-11-25T11:27:07.797Z,10.02
2022-11-25T11:30:20.239Z,10.55
2022-11-25T11:33:36.302Z,11.88
2022-11-25T11:37:03.082Z,12.13
2022-11-25T11:40:38.992Z,13.40
2022-11-25T11:44:08.651Z,13.80
2022-11-25T11:47:25.482Z,13.70
2022-11-25T11:50:34.146Z,12.82
2022-11-25T11:53:50.527Z,12.57
2022-11-25T11:57:00.960Z,13.55
2022-11-25T12:00:16.113Z,12.80
2022-11-25T12:03:24.649Z,11.88
2022-11-25T12:06:39.035Z,12.43
2022-11-25T12:13:16.280Z,11.85
2022-11-25T12:16:35.046Z,11.13
2022-11-25T12:19:55.012Z,10.23
2022-11-25T12:23:13.148Z,9.55
2022-11-25T12:26:25.355Z,11.18
2022-11-25T12:29:46.078Z,10.48
2022-11-25T12:33:12.984Z,10.70
2022-11-25T12:36:26.350Z,9.07
2022-11-25T12:39:46.992Z,11.00
2022-11-25T12:42:57.393Z,11.75
2022-11-25T12:46:21.070Z,10.82
2022-11-25T12:49:34.986Z,10.05
2022-11-25T12:52:58.961Z,10.43
2022-11-25T12:56:14.107Z,10.45
2022-11-25T13:00:01.653Z,10.80
2022-11-25T13:03:53.022Z,10.50
2022-11-25T13:07:40.991Z,9.68
2022-11-25T13:11:23.346Z,10.32
2022-11-25T13:14:48.009Z,9.85
2022-11-25T13:21:16.930Z,10.27
2022-11-25T13:24:38.233Z,9.82
2022-11-25T13:28:08.935Z,9.55
2022-11-25T13:31:22.628Z,9.43
2022-11-25T13:34:38.142Z,9.35
2022-11-25T13:37:42.322Z,9.13
2022-11-25T13:41:04.923Z,9.88
2022-11-25T13:44:35.514Z,8.95
2022-11-25T13:47:49.052Z,9.88
2022-11-25T13:51:19.945Z,9.93
2022-11-25T13:54:40.916Z,10.40
2022-11-25T13:57:47.509Z,8.50
2022-11-25T14:01:30.532Z,9.40
2022-11-25T14:04:56.916Z,9.13
2022-11-25T14:08:16.085Z,9.95
2022-11-25T14:11:50.927Z,9.45
2022-11-25T14:15:29.914Z,9.63
2022-11-25T14:23:08.925Z,8.98
2022-11-25T14:26:48.180Z,8.35
2022-11-25T14:30:02.928Z,9.02
2022-11-25T14:33:20.865Z,8.65
2022-11-25T14:36:32.652Z,8.07
2022-11-25T14:39:49.348Z,8.38
2022-11-25T14:43:01.775Z,7.63
2022-11-25T14:46:21.898Z,7.53
2022-11-25T14:49:45.207Z,7.57
2022-11-25T14:52:57.905Z,7.13
2022-11-25T14:56:02.679Z,7.28
2022-11-25T14:59:16.841Z,7.07
2022-11-25T15:02:40.999Z,7.93
2022-11-25T15:05:44.834Z,6.85
2022-11-25T15:09:05.869Z,8.02
2022-11-25T15:12:51.251Z,6.88
2022-11-25T15:16:48.139Z,7.72
2022-11-25T15:20:18.565Z,6.90
2022-11-25T15:23:52.818Z,8.38
2022-11-25T15:27:42.265Z,8.07
2022-11-25T15:38:47.836Z,8.05
2022-11-25T15:41:53.076Z,8.02
2022-11-25T15:45:10.774Z,7.82
2022-11-25T15:48:23.448Z,7.38
2022-11-25T15:51:45.748Z,6.97
2022-11-25T15:54:59.755Z,7.60
2022-11-25T15:58:18.756Z,6.65
2022-11-25T16:01:31.850Z,6.47
2022-11-25T16:04:41.747Z,6.53
2022-11-25T16:08:23.277Z,7.25
2022-11-25T16:11:36.731Z,7.05
2022-11-25T16:14:45.771Z,7.55
2022-11-25T16:17:49.945Z,7.18
2022-11-25T16:24:22.725Z,8.02
2022-11-25T16:27:34.854Z,7.88
2022-11-25T16:30:44.717Z,7.53
2022-11-25T16:33:55.721Z,7.50
2022-11-25T16:37:04.743Z,6.95
2022-11-25T16:40:12.652Z,7.30
2022-11-25T16:43:29.703Z,6.75
2022-11-25T16:46:32.538Z,7.35
2022-11-25T16:49:43.686Z,6.20
2022-11-25T16:52:46.503Z,6.43
2022-11-25T16:55:56.714Z,6.63
2022-11-25T16:59:05.698Z,6.18
2022-11-25T17:02:24.848Z,6.38
2022-11-25T17:05:42.702Z,5.60
2022-11-25T17:08:46.427Z,5.80
2022-11-25T17:12:00.686Z,5.60
2022-11-25T17:15:13.784Z,5.13
2022-11-25T17:18:19.091Z,5.75
2022-11-25T17:21:33.693Z,5.55
2022-11-25T17:24:36.698Z,6.15
2022-11-25T17:27:47.678Z,4.70
2022-11-25T17:30:56.676Z,6.03
2022-11-25T17:34:06.670Z,5.45
2022-11-25T17:37:16.447Z,5.57
2022-11-25T17:40:25.666Z,5.95
2022-11-25T17:43:34.349Z,5.70
2022-11-25T17:46:43.650Z,6.00
2022-11-25T17:49:53.642Z,6.10
2022-11-25T17:53:04.883Z,5.55
2022-11-25T17:56:30.631Z,5.70
2022-11-25T17:59:36.326Z,5.07
2022-11-25T18:02:45.777Z,5.70
2022-11-25T18:05:55.635Z,4.45
2022-11-25T18:08:59.802Z,5.35
2022-11-25T18:15:27.607Z,5.25
2022-11-25T18:18:30.404Z,4.05
2022-11-25T18:21:39.606Z,4.78
2022-11-25T18:24:44.317Z,4.93
2022-11-25T18:27:55.622Z,5.43
2022-11-25T18:31:10.672Z,5.80
2022-11-25T18:34:16.433Z,5.35
2022-11-25T18:37:25.627Z,6.13
2022-11-25T18:40:37.594Z,5.82
2022-11-25T18:43:46.604Z,5.43
2022-11-25T18:46:49.431Z,5.80
2022-11-25T18:49:59.595Z,5.30
2022-11-25T18:53:08.577Z,5.70
2022-11-25T18:56:21.603Z,5.53
2022-11-25T18:59:32.959Z,5.57
2022-11-25T19:02:42.640Z,5.45
2022-11-25T19:05:45.768Z,5.65
2022-11-25T19:08:55.595Z,5.10
2022-11-25T19:12:06.571Z,5.72
2022-11-25T19:15:14.485Z,5.60
2022-11-25T19:18:31.559Z,4.47
2022-11-25T19:21:41.568Z,4.28
2022-11-25T19:24:45.766Z,5.05
2022-11-25T19:31:04.433Z,4.47
2022-11-25T19:34:13.538Z,4.78
2022-11-25T19:37:26.561Z,4.50
2022-11-25T19:40:33.510Z,4.80
2022-11-25T19:43:48.553Z,4.60
2022-11-25T19:47:14.745Z,4.50
2022-11-25T19:50:31.535Z,4.50
2022-11-25T19:53:40.524Z,4.65
2022-11-25T19:56:50.524Z,4.20
2022-11-25T20:00:01.512Z,4.40
2022-11-25T20:03:11.518Z,4.82
2022-11-25T20:06:24.507Z,4.90
2022-11-25T20:09:33.523Z,4.75
2022-11-25T20:12:42.498Z,5.47
2022-11-25T20:15:53.590Z,5.68
2022-11-25T20:18:56.550Z,5.60
2022-11-25T20:22:05.502Z,5.22
2022-11-25T20:25:10.714Z,5.28
2022-11-25T20:28:24.507Z,5.55
2022-11-25T20:31:36.534Z,6.40
2022-11-25T20:34:42.189Z,6.05
2022-11-25T20:38:00.485Z,5.82
2022-11-25T20:41:11.487Z,6.55
2022-11-25T20:44:15.094Z,6.95
2022-11-25T20:47:30.484Z,7.38
2022-11-25T20:50:33.339Z,5.88
2022-11-25T20:53:43.477Z,6.95
2022-11-25T20:56:46.355Z,7.47
2022-11-25T20:59:55.482Z,7.97
2022-11-25T21:03:06.445Z,8.70
2022-11-25T21:06:28.463Z,7.78
2022-11-25T21:09:41.467Z,8.10
2022-11-25T21:12:50.454Z,8.65
2022-11-25T21:15:53.959Z,7.53
2022-11-25T21:19:04.463Z,7.15
2022-11-25T21:22:13.441Z,7.28
2022-11-25T21:25:20.300Z,7.00
2022-11-25T21:28:34.435Z,7.63
2022-11-25T21:31:37.297Z,7.13
2022-11-25T21:34:48.421Z,6.93
2022-11-25T21:37:57.410Z,7.60
2022-11-25T21:41:00.284Z,7.15
2022-11-25T21:44:13.421Z,7.18
2022-11-25T21:47:26.422Z,7.07
2022-11-25T21:50:31.050Z,6.57
2022-11-25T21:53:40.424Z,6.57
2022-11-25T21:56:50.398Z,6.68
2022-11-25T21:59:59.400Z,7.18
2022-11-25T22:03:08.549Z,7.53
2022-11-25T22:06:26.416Z,7.80
2022-11-25T22:09:35.384Z,7.20
2022-11-25T22:12:41.484Z,7.45
2022-11-25T22:15:52.465Z,6.35
2022-11-25T22:19:02.413Z,7.88
2022-11-25T22:22:19.376Z,7.57
2022-11-25T22:25:31.396Z,7.30
2022-11-25T22:28:42.362Z,6.88
2022-11-25T22:31:53.577Z,6.30
2022-11-25T22:35:10.358Z,7.68
2022-11-25T22:38:25.379Z,7.50
2022-11-25T22:41:35.360Z,7.32
2022-11-25T22:44:49.364Z,6.43
2022-11-25T22:47:59.358Z,6.88
2022-11-25T22:51:09.356Z,5.97
2022-11-25T22:54:13.973Z,6.05
2022-11-25T22:57:24.367Z,6.32
2022-11-25T23:00:38.445Z,6.53
2022-11-25T23:03:43.199Z,6.03
2022-11-25T23:06:54.336Z,6.05
2022-11-25T23:10:05.347Z,5.60
2022-11-25T23:13:08.320Z,5.97
2022-11-25T23:16:18.370Z,5.47
2022-11-25T23:19:21.329Z,5.53
2022-11-25T23:22:30.334Z,5.68
2022-11-25T23:25:41.318Z,5.68
2022-11-25T23:28:44.110Z,6.18
2022-11-25T23:31:53.341Z,5.47
2022-11-25T23:34:56.159Z,5.32
2022-11-25T23:38:06.331Z,4.78
2022-11-25T23:41:23.291Z,4.53
2022-11-25T23:44:28.975Z,4.25
2022-11-25T23:47:44.293Z,3.30
2022-11-25T23:50:55.305Z,3.97
2022-11-25T23:53:59.737Z,3.63
2022-11-25T23:57:10.294Z,4.47
